createdAt,value
2019-05-18T00:00:20.621Z,0.00
2019-05-18T00:01:20.609Z,0.00
2019-05-18T00:02:20.607Z,0.00
2019-05-18T00:03:20.601Z,0.00
2019-05-18T00:04:20.594Z,0.00
2019-05-18T00:05:20.588Z,0.00
2019-05-18T00:06:20.574Z,0.00
2019-05-18T00:07:20.566Z,0.00
2019-05-18T00:08:20.563Z,0.00
2019-05-18T00:09:20.551Z,0.00
2019-05-18T00:10:20.546Z,0.00
2019-05-18T00:11:20.538Z,0.00
2019-05-18T00:12:20.533Z,0.00
2019-05-18T00:13:23.269Z,0.00
2019-05-18T00:14:20.512Z,0.00
2019-05-18T00:15:20.508Z,0.00
2019-05-18T00:16:20.501Z,0.00
2019-05-18T00:17:25.405Z,0.00
2019-05-18T00:18:20.479Z,0.00
2019-05-18T00:19:20.474Z,0.00
2019-05-18T00:20:35.939Z,0.00
2019-05-18T00:21:20.460Z,0.00
2019-05-18T00:22:20.459Z,0.00
2019-05-18T00:23:20.443Z,0.00
2019-05-18T00:24:20.436Z,0.00
2019-05-18T00:25:20.423Z,0.00
2019-05-18T00:26:20.418Z,0.00
2019-05-18T00:27:20.412Z,0.00
2019-05-18T00:28:20.400Z,0.00
2019-05-18T00:29:20.399Z,0.00
2019-05-18T00:30:20.384Z,0.00
2019-05-18T00:31:20.378Z,0.00
2019-05-18T00:32:20.372Z,0.00
2019-05-18T00:33:20.379Z,0.00
2019-05-18T00:34:20.351Z,0.00
2019-05-18T00:35:20.346Z,0.00
2019-05-18T00:36:20.339Z,0.00
2019-05-18T00:37:21.012Z,0.00
2019-05-18T00:38:20.323Z,0.00
2019-05-18T00:39:20.313Z,0.00
2019-05-18T00:40:20.307Z,0.00
2019-05-18T00:41:20.300Z,0.00
2019-05-18T00:42:20.291Z,0.00
2019-05-18T00:43:20.279Z,0.00
2019-05-18T00:44:20.275Z,0.00
2019-05-18T00:45:20.283Z,0.00
2019-05-18T00:46:20.258Z,0.00
2019-05-18T00:47:20.262Z,0.00
2019-05-18T00:48:20.244Z,0.00
2019-05-18T00:49:20.232Z,0.00
2019-05-18T00:50:20.226Z,0.00
2019-05-18T00:51:23.147Z,0.00
2019-05-18T00:52:20.208Z,0.00
2019-05-18T00:53:20.206Z,0.00
2019-05-18T00:54:20.201Z,0.00
2019-05-18T00:55:20.188Z,0.00
2019-05-18T00:56:20.179Z,0.00
2019-05-18T00:57:20.186Z,0.00
2019-05-18T00:58:20.158Z,0.00
2019-05-18T00:59:20.154Z,0.00
2019-05-18T01:00:20.146Z,0.00
2019-05-18T01:01:20.135Z,0.00
2019-05-18T01:02:20.126Z,0.00
2019-05-18T01:03:20.122Z,0.00
2019-05-18T01:04:20.112Z,0.00
2019-05-18T01:05:20.108Z,0.00
2019-05-18T01:06:20.097Z,0.00
2019-05-18T01:07:20.087Z,0.00
2019-05-18T01:08:20.083Z,0.00
2019-05-18T01:09:20.071Z,0.00
2019-05-18T01:10:20.075Z,0.00
2019-05-18T01:11:20.057Z,0.00
2019-05-18T01:12:20.047Z,0.00
2019-05-18T01:13:20.039Z,0.00
2019-05-18T01:14:20.037Z,0.00
2019-05-18T01:15:20.024Z,0.00
2019-05-18T01:16:20.023Z,0.00
2019-05-18T01:17:20.011Z,0.00
2019-05-18T01:18:20.010Z,0.00
2019-05-18T01:19:19.993Z,0.00
2019-05-18T01:20:19.987Z,0.00
2019-05-18T01:21:19.976Z,0.00
2019-05-18T01:22:19.966Z,0.00
2019-05-18T01:23:19.959Z,0.00
2019-05-18T01:24:19.954Z,0.00
2019-05-18T01:25:19.948Z,0.00
2019-05-18T01:26:19.939Z,0.00
2019-05-18T01:27:19.924Z,0.00
2019-05-18T01:28:19.919Z,0.00
2019-05-18T01:29:19.915Z,0.00
2019-05-18T01:30:19.898Z,0.00
2019-05-18T01:31:19.897Z,0.00
2019-05-18T01:32:19.892Z,0.00
2019-05-18T01:33:19.877Z,0.00
2019-05-18T01:34:19.865Z,0.00
2019-05-18T01:35:19.865Z,0.00
2019-05-18T01:36:19.854Z,0.00
2019-05-18T01:37:19.854Z,0.00
2019-05-18T01:38:19.842Z,0.00
2019-05-18T01:39:19.830Z,0.00
2019-05-18T01:40:20.538Z,0.00
2019-05-18T01:41:21.558Z,0.00
2019-05-18T01:42:19.802Z,0.00
2019-05-18T01:43:19.791Z,0.00
2019-05-18T01:44:19.789Z,0.00
2019-05-18T01:45:19.785Z,0.00
2019-05-18T01:46:19.770Z,0.00
2019-05-18T01:47:19.760Z,0.00
2019-05-18T01:48:19.768Z,0.00
2019-05-18T01:49:19.743Z,0.00
2019-05-18T01:50:19.736Z,0.00
2019-05-18T01:51:19.729Z,0.00
2019-05-18T01:52:19.725Z,0.00
2019-05-18T01:53:19.721Z,0.00
2019-05-18T01:54:19.701Z,0.00
2019-05-18T01:55:19.697Z,0.00
2019-05-18T01:56:19.687Z,0.00
2019-05-18T01:57:19.675Z,0.00
2019-05-18T01:58:19.681Z,0.00
2019-05-18T01:59:19.677Z,0.00
2019-05-18T02:00:19.660Z,0.00
2019-05-18T02:01:19.648Z,0.00
2019-05-18T02:02:19.658Z,0.00
2019-05-18T02:03:19.627Z,0.00
2019-05-18T02:04:19.622Z,0.00
2019-05-18T02:05:19.623Z,0.00
2019-05-18T02:06:19.605Z,0.00
2019-05-18T02:07:19.620Z,0.00
2019-05-18T02:08:19.583Z,0.00
2019-05-18T02:09:19.619Z,0.00
2019-05-18T02:10:19.599Z,0.00
2019-05-18T02:11:19.564Z,0.00
2019-05-18T02:12:19.560Z,0.00
2019-05-18T02:13:19.542Z,0.00
2019-05-18T02:14:19.537Z,0.00
2019-05-18T02:15:19.531Z,0.00
2019-05-18T02:16:19.520Z,0.00
2019-05-18T02:17:19.520Z,0.00
2019-05-18T02:18:28.658Z,0.00
2019-05-18T02:19:19.497Z,0.00
2019-05-18T02:20:19.501Z,0.00
2019-05-18T02:21:19.481Z,0.00
2019-05-18T02:22:19.471Z,0.00
2019-05-18T02:23:19.461Z,0.00
2019-05-18T02:24:19.456Z,0.00
2019-05-18T02:25:19.451Z,0.00
2019-05-18T02:26:19.438Z,0.00
2019-05-18T02:27:19.428Z,0.00
2019-05-18T02:28:19.426Z,0.00
2019-05-18T02:29:19.415Z,0.00
2019-05-18T02:30:19.408Z,0.00
2019-05-18T02:31:19.405Z,0.00
2019-05-18T02:32:19.399Z,0.00
2019-05-18T02:33:19.378Z,0.00
2019-05-18T02:34:19.372Z,0.00
2019-05-18T02:35:19.364Z,0.00
2019-05-18T02:36:19.362Z,0.00
2019-05-18T02:37:19.348Z,0.00
2019-05-18T02:38:19.358Z,0.00
2019-05-18T02:39:19.324Z,0.00
2019-05-18T02:40:19.321Z,0.00
2019-05-18T02:41:19.309Z,0.00
2019-05-18T02:42:19.307Z,0.00
2019-05-18T02:43:19.296Z,0.00
2019-05-18T02:44:19.289Z,0.00
2019-05-18T02:45:19.281Z,0.00
2019-05-18T02:46:19.283Z,0.00
2019-05-18T02:47:19.263Z,0.00
2019-05-18T02:48:19.260Z,0.00
2019-05-18T02:49:19.251Z,0.00
2019-05-18T02:50:19.238Z,0.00
2019-05-18T02:51:19.235Z,0.00
2019-05-18T02:52:19.225Z,0.00
2019-05-18T02:53:19.237Z,0.00
2019-05-18T02:54:19.207Z,0.00
2019-05-18T02:55:19.201Z,0.00
2019-05-18T02:56:19.199Z,0.00
2019-05-18T02:57:19.178Z,0.00
2019-05-18T02:58:19.170Z,0.00
2019-05-18T02:59:19.165Z,0.00
2019-05-18T03:00:19.153Z,0.00
2019-05-18T03:01:19.152Z,0.00
2019-05-18T03:02:19.135Z,0.00
2019-05-18T03:03:19.134Z,0.00
2019-05-18T03:04:19.125Z,0.00
2019-05-18T03:05:19.110Z,0.00
2019-05-18T03:06:19.103Z,0.00
2019-05-18T03:07:19.098Z,0.00
2019-05-18T03:08:19.087Z,0.00
2019-05-18T03:09:19.082Z,0.00
2019-05-18T03:10:19.066Z,0.00
2019-05-18T03:11:19.154Z,0.00
2019-05-18T03:12:19.051Z,0.00
2019-05-18T03:13:19.043Z,0.00
2019-05-18T03:14:20.590Z,0.00
2019-05-18T03:15:19.031Z,0.00
2019-05-18T03:16:19.019Z,0.00
2019-05-18T03:17:19.011Z,0.00
2019-05-18T03:18:19.005Z,5.63
2019-05-18T03:19:18.992Z,5.63
2019-05-18T03:20:18.986Z,5.63
2019-05-18T03:21:18.976Z,5.63
2019-05-18T03:22:18.970Z,5.63
2019-05-18T03:23:18.962Z,5.63
2019-05-18T03:24:18.961Z,5.63
2019-05-18T03:25:18.945Z,5.63
2019-05-18T03:26:18.935Z,11.25
2019-05-18T03:27:18.952Z,11.25
2019-05-18T03:28:18.919Z,11.25
2019-05-18T03:29:18.908Z,11.25
2019-05-18T03:30:18.901Z,16.88
2019-05-18T03:31:18.901Z,16.88
2019-05-18T03:32:18.904Z,16.88
2019-05-18T03:33:18.874Z,16.88
2019-05-18T03:34:18.864Z,22.50
2019-05-18T03:35:18.857Z,22.50
2019-05-18T03:36:18.854Z,22.50
2019-05-18T03:37:18.841Z,22.50
2019-05-18T03:38:18.833Z,28.13
2019-05-18T03:39:18.823Z,28.13
2019-05-18T03:40:18.820Z,28.13
2019-05-18T03:41:18.805Z,33.75
2019-05-18T03:42:18.801Z,33.75
2019-05-18T03:43:18.792Z,39.38
2019-05-18T03:44:18.785Z,39.38
2019-05-18T03:45:18.772Z,45.00
2019-05-18T03:46:18.785Z,45.00
2019-05-18T03:47:18.759Z,45.00
2019-05-18T03:48:18.756Z,50.63
2019-05-18T03:49:26.801Z,50.63
2019-05-18T03:50:18.735Z,56.25
2019-05-18T03:51:18.729Z,56.25
2019-05-18T03:52:18.708Z,61.88
2019-05-18T03:53:18.709Z,61.88
2019-05-18T03:54:18.695Z,67.50
2019-05-18T03:55:18.687Z,67.50
2019-05-18T03:56:18.681Z,73.13
2019-05-18T03:57:18.670Z,73.13
2019-05-18T03:58:18.662Z,78.75
2019-05-18T03:59:18.660Z,84.38
2019-05-18T04:00:18.644Z,84.38
2019-05-18T04:01:18.646Z,90.00
2019-05-18T04:02:19.595Z,90.00
2019-05-18T04:03:18.626Z,95.63
2019-05-18T04:04:18.774Z,95.63
2019-05-18T04:05:18.609Z,101.25
2019-05-18T04:06:18.598Z,106.88
2019-05-18T04:07:18.583Z,106.88
2019-05-18T04:08:18.578Z,112.50
2019-05-18T04:09:18.568Z,112.50
2019-05-18T04:10:18.560Z,118.13
2019-05-18T04:11:18.561Z,123.75
2019-05-18T04:12:18.545Z,123.75
2019-05-18T04:13:18.534Z,123.75
2019-05-18T04:14:18.533Z,123.75
2019-05-18T04:15:18.538Z,129.38
2019-05-18T04:16:18.510Z,135.00
2019-05-18T04:17:18.505Z,135.00
2019-05-18T04:18:18.490Z,140.63
2019-05-18T04:19:18.494Z,140.63
2019-05-18T04:20:18.488Z,146.25
2019-05-18T04:21:18.467Z,151.88
2019-05-18T04:22:18.465Z,151.88
2019-05-18T04:23:18.448Z,157.50
2019-05-18T04:24:18.447Z,168.75
2019-05-18T04:25:18.437Z,168.75
2019-05-18T04:26:18.417Z,168.75
2019-05-18T04:27:18.412Z,174.38
2019-05-18T04:28:18.407Z,180.00
2019-05-18T04:29:18.399Z,185.63
2019-05-18T04:30:18.391Z,185.63
2019-05-18T04:31:18.379Z,191.25
2019-05-18T04:32:18.370Z,196.88
2019-05-18T04:33:18.374Z,196.88
2019-05-18T04:34:18.348Z,202.50
2019-05-18T04:35:18.343Z,208.13
2019-05-18T04:36:18.345Z,213.75
2019-05-18T04:37:18.327Z,219.38
2019-05-18T04:38:18.316Z,219.38
2019-05-18T04:39:18.311Z,225.00
2019-05-18T04:40:18.305Z,230.63
2019-05-18T04:41:18.309Z,236.25
2019-05-18T04:42:18.284Z,241.88
2019-05-18T04:43:18.280Z,241.88
2019-05-18T04:44:18.276Z,247.50
2019-05-18T04:45:18.258Z,253.13
2019-05-18T04:46:18.256Z,253.13
2019-05-18T04:47:18.249Z,258.75
2019-05-18T04:48:18.247Z,264.38
2019-05-18T04:49:18.231Z,275.63
2019-05-18T04:50:18.221Z,326.25
2019-05-18T04:51:18.210Z,461.25
2019-05-18T04:52:18.206Z,579.38
2019-05-18T04:53:18.197Z,618.75
2019-05-18T04:54:18.184Z,652.50
2019-05-18T04:55:18.177Z,675.00
2019-05-18T04:56:18.168Z,697.50
2019-05-18T04:57:18.162Z,720.00
2019-05-18T04:58:18.170Z,759.38
2019-05-18T04:59:18.146Z,798.75
2019-05-18T05:00:18.134Z,826.88
2019-05-18T05:01:18.131Z,838.13
2019-05-18T05:02:18.125Z,860.63
2019-05-18T05:03:18.111Z,911.25
2019-05-18T05:04:18.110Z,956.25
2019-05-18T05:05:18.102Z,950.63
2019-05-18T05:06:18.092Z,973.13
2019-05-18T05:07:18.081Z,1029.38
2019-05-18T05:08:18.072Z,1018.13
2019-05-18T05:09:18.065Z,1119.38
2019-05-18T05:10:18.069Z,1192.50
2019-05-18T05:11:18.053Z,1226.25
2019-05-18T05:12:18.043Z,1198.13
2019-05-18T05:13:18.031Z,1209.38
2019-05-18T05:14:18.026Z,1231.88
2019-05-18T05:15:18.025Z,1288.13
2019-05-18T05:16:18.019Z,1310.63
2019-05-18T05:17:18.008Z,1310.63
2019-05-18T05:18:18.006Z,1350.00
2019-05-18T05:19:17.994Z,1299.38
2019-05-18T05:20:20.337Z,1170.00
2019-05-18T05:21:17.982Z,1305.00
2019-05-18T05:22:17.977Z,1203.75
2019-05-18T05:23:17.967Z,1299.38
2019-05-18T05:24:17.966Z,1265.63
2019-05-18T05:25:17.958Z,1445.63
2019-05-18T05:26:17.950Z,1417.50
2019-05-18T05:27:17.957Z,658.13
2019-05-18T05:28:17.939Z,1265.63
2019-05-18T05:29:17.934Z,1468.13
2019-05-18T05:30:17.928Z,1490.63
2019-05-18T05:31:17.924Z,1530.00
2019-05-18T05:32:17.922Z,1563.75
2019-05-18T05:33:17.977Z,1642.50
2019-05-18T05:34:17.905Z,1721.25
2019-05-18T05:35:17.906Z,1777.50
2019-05-18T05:36:17.922Z,1850.63
2019-05-18T05:37:17.883Z,1951.88
2019-05-18T05:38:17.882Z,1923.75
2019-05-18T05:39:17.879Z,1980.00
2019-05-18T05:40:17.872Z,1991.25
2019-05-18T05:41:17.889Z,2092.50
2019-05-18T05:42:17.860Z,2075.63
2019-05-18T05:43:17.857Z,2013.75
2019-05-18T05:44:17.854Z,1940.63
2019-05-18T05:45:17.845Z,2047.50
2019-05-18T05:46:17.847Z,2109.38
2019-05-18T05:47:17.839Z,2148.75
2019-05-18T05:48:17.835Z,2171.25
2019-05-18T05:49:17.827Z,2143.13
2019-05-18T05:50:17.823Z,2081.25
2019-05-18T05:51:17.821Z,2086.88
2019-05-18T05:52:17.817Z,2176.88
2019-05-18T05:53:17.811Z,2205.00
2019-05-18T05:54:17.808Z,2261.25
2019-05-18T05:55:17.802Z,1940.63
2019-05-18T05:56:17.802Z,1710.00
2019-05-18T05:57:17.796Z,2435.63
2019-05-18T05:58:17.799Z,2075.63
2019-05-18T05:59:17.795Z,2295.00
2019-05-18T06:00:17.786Z,2300.63
2019-05-18T06:01:17.792Z,2272.50
2019-05-18T06:02:17.785Z,1951.88
2019-05-18T06:03:17.781Z,1901.25
2019-05-18T06:04:17.775Z,1524.38
2019-05-18T06:05:17.771Z,1243.13
2019-05-18T06:06:17.772Z,1192.50
2019-05-18T06:07:17.769Z,1254.38
2019-05-18T06:08:17.770Z,1372.50
2019-05-18T06:09:17.764Z,1243.13
2019-05-18T06:10:17.758Z,1215.00
2019-05-18T06:11:17.760Z,1248.75
2019-05-18T06:12:17.769Z,1243.13
2019-05-18T06:13:17.748Z,1226.25
2019-05-18T06:14:17.757Z,1231.88
2019-05-18T06:15:17.742Z,1248.75
2019-05-18T06:16:17.744Z,1305.00
2019-05-18T06:17:17.742Z,1248.75
2019-05-18T06:18:17.737Z,1805.63
2019-05-18T06:19:17.739Z,2626.88
2019-05-18T06:20:17.738Z,2041.88
2019-05-18T06:21:17.730Z,1018.13
2019-05-18T06:22:17.730Z,883.13
2019-05-18T06:23:17.740Z,871.88
2019-05-18T06:24:17.725Z,1012.50
2019-05-18T06:25:17.733Z,1771.88
2019-05-18T06:26:17.723Z,2581.88
2019-05-18T06:27:17.715Z,2930.63
2019-05-18T06:28:17.717Z,3178.13
2019-05-18T06:29:17.711Z,3172.50
2019-05-18T06:30:17.733Z,3375.00
2019-05-18T06:31:17.709Z,3566.25
2019-05-18T06:32:17.707Z,3628.13
2019-05-18T06:33:17.706Z,3532.50
2019-05-18T06:34:17.705Z,3510.00
2019-05-18T06:35:17.702Z,3493.13
2019-05-18T06:36:17.699Z,3324.38
2019-05-18T06:37:17.697Z,3375.00
2019-05-18T06:38:17.694Z,3510.00
2019-05-18T06:39:17.697Z,3448.13
2019-05-18T06:40:17.698Z,3425.63
2019-05-18T06:41:17.691Z,3436.88
2019-05-18T06:42:17.741Z,3566.25
2019-05-18T06:43:17.692Z,3678.75
2019-05-18T06:44:17.684Z,3105.00
2019-05-18T06:45:17.685Z,3504.38
2019-05-18T06:46:17.687Z,3448.13
2019-05-18T06:47:17.685Z,3583.13
2019-05-18T06:48:17.688Z,3796.88
2019-05-18T06:49:17.683Z,3920.63
2019-05-18T06:50:17.698Z,3954.38
2019-05-18T06:51:17.684Z,3830.63
2019-05-18T06:52:17.690Z,3780.00
2019-05-18T06:53:17.682Z,3780.00
2019-05-18T06:54:17.696Z,3931.88
2019-05-18T06:55:17.687Z,4033.13
2019-05-18T06:56:17.684Z,4010.63
2019-05-18T06:57:17.691Z,4252.50
2019-05-18T06:58:17.686Z,4432.50
2019-05-18T06:59:17.695Z,4432.50
2019-05-18T07:00:17.686Z,4443.75
2019-05-18T07:01:17.688Z,4353.75
2019-05-18T07:02:17.689Z,4291.88
2019-05-18T07:03:17.688Z,4477.50
2019-05-18T07:04:17.692Z,4516.88
2019-05-18T07:05:17.720Z,4573.13
2019-05-18T07:06:17.694Z,4567.50
2019-05-18T07:07:17.708Z,4415.63
2019-05-18T07:08:17.693Z,4297.50
2019-05-18T07:09:17.696Z,4387.50
2019-05-18T07:10:17.694Z,4545.00
2019-05-18T07:11:17.701Z,4573.13
2019-05-18T07:12:17.700Z,4528.13
2019-05-18T07:13:17.693Z,4443.75
2019-05-18T07:14:25.416Z,4297.50
2019-05-18T07:15:17.714Z,4528.13
2019-05-18T07:16:17.703Z,4708.13
2019-05-18T07:17:17.710Z,4837.50
2019-05-18T07:18:17.782Z,3532.50
2019-05-18T07:19:17.714Z,4865.63
2019-05-18T07:20:17.714Z,4803.75
2019-05-18T07:21:22.176Z,4815.00
2019-05-18T07:22:17.857Z,4680.00
2019-05-18T07:23:17.727Z,4663.13
2019-05-18T07:24:17.813Z,4162.50
2019-05-18T07:25:17.740Z,4100.63
2019-05-18T07:26:17.737Z,4038.75
2019-05-18T07:27:17.725Z,4207.50
2019-05-18T07:28:17.735Z,4021.88
2019-05-18T07:29:17.735Z,4235.63
2019-05-18T07:30:17.740Z,4151.25
2019-05-18T07:31:17.738Z,4471.88
2019-05-18T07:32:17.745Z,4455.00
2019-05-18T07:33:18.720Z,4601.25
2019-05-18T07:34:17.755Z,4995.00
2019-05-18T07:35:17.750Z,5208.75
2019-05-18T07:36:17.753Z,5310.00
2019-05-18T07:37:17.759Z,5546.25
2019-05-18T07:38:17.761Z,5186.25
2019-05-18T07:39:17.775Z,4606.88
2019-05-18T07:40:17.762Z,4820.63
2019-05-18T07:41:17.765Z,4809.38
2019-05-18T07:42:17.771Z,4882.50
2019-05-18T07:43:17.773Z,4820.63
2019-05-18T07:44:17.789Z,4831.88
2019-05-18T07:45:17.777Z,4252.50
2019-05-18T07:46:17.779Z,4786.88
2019-05-18T07:47:17.785Z,4888.13
2019-05-18T07:48:17.787Z,4927.50
2019-05-18T07:49:17.793Z,4865.63
2019-05-18T07:50:17.804Z,4995.00
2019-05-18T07:51:17.799Z,5220.00
2019-05-18T07:52:17.802Z,5141.25
2019-05-18T07:53:17.809Z,5135.63
2019-05-18T07:54:18.747Z,5113.13
2019-05-18T07:55:24.773Z,4916.25
2019-05-18T07:56:17.818Z,4595.63
2019-05-18T07:57:17.821Z,4618.13
2019-05-18T07:58:17.834Z,5101.88
2019-05-18T07:59:19.843Z,5197.50
2019-05-18T08:00:17.827Z,5310.00
2019-05-18T08:01:17.834Z,5253.75
2019-05-18T08:02:17.839Z,5281.88
2019-05-18T08:03:17.845Z,5467.50
2019-05-18T08:04:17.858Z,5456.25
2019-05-18T08:05:17.850Z,5461.88
2019-05-18T08:06:17.877Z,5647.50
2019-05-18T08:07:18.751Z,5512.50
2019-05-18T08:08:18.757Z,5596.88
2019-05-18T08:09:17.872Z,5737.50
2019-05-18T08:10:17.881Z,5760.00
2019-05-18T08:11:17.882Z,5900.63
2019-05-18T08:12:17.885Z,5911.88
2019-05-18T08:13:17.892Z,6120.00
2019-05-18T08:14:18.004Z,5748.75
2019-05-18T08:15:17.902Z,6322.50
2019-05-18T08:16:17.899Z,5636.25
2019-05-18T08:17:17.904Z,5956.88
2019-05-18T08:18:17.912Z,4426.88
2019-05-18T08:19:17.950Z,3988.13
2019-05-18T08:20:17.925Z,4809.38
2019-05-18T08:21:17.956Z,5760.00
2019-05-18T08:22:17.927Z,5062.50
2019-05-18T08:23:17.979Z,5692.50
2019-05-18T08:24:17.940Z,4336.88
2019-05-18T08:25:17.943Z,5056.88
2019-05-18T08:26:17.947Z,3639.38
2019-05-18T08:27:17.970Z,3245.63
2019-05-18T08:28:17.962Z,3515.63
2019-05-18T08:29:18.021Z,3633.75
2019-05-18T08:30:18.012Z,3228.75
2019-05-18T08:31:17.979Z,3099.38
2019-05-18T08:32:18.984Z,2711.25
2019-05-18T08:33:17.986Z,2868.75
2019-05-18T08:34:17.990Z,2874.38
2019-05-18T08:35:18.011Z,2919.38
2019-05-18T08:36:18.010Z,3065.63
2019-05-18T08:37:18.005Z,3161.25
2019-05-18T08:38:18.009Z,3391.88
2019-05-18T08:39:18.037Z,3335.63
2019-05-18T08:40:18.024Z,3397.50
2019-05-18T08:41:18.023Z,4415.63
2019-05-18T08:42:18.027Z,4978.13
2019-05-18T08:43:18.079Z,4927.50
2019-05-18T08:44:18.070Z,5028.75
2019-05-18T08:45:18.043Z,5163.75
2019-05-18T08:46:18.044Z,5130.00
2019-05-18T08:47:18.075Z,4983.75
2019-05-18T08:48:18.050Z,4764.38
2019-05-18T08:49:18.112Z,5315.63
2019-05-18T08:50:18.069Z,4950.00
2019-05-18T08:51:18.072Z,4820.63
2019-05-18T08:52:18.070Z,4775.63
2019-05-18T08:53:18.078Z,5394.38
2019-05-18T08:54:18.078Z,5484.38
2019-05-18T08:55:18.094Z,5518.13
2019-05-18T08:56:18.104Z,5231.25
2019-05-18T08:57:18.111Z,5866.88
2019-05-18T08:58:18.118Z,5529.38
2019-05-18T08:59:18.113Z,6041.25
2019-05-18T09:00:18.114Z,5591.25
2019-05-18T09:01:18.117Z,5523.75
2019-05-18T09:02:18.115Z,5281.88
2019-05-18T09:03:18.126Z,4685.63
2019-05-18T09:04:18.137Z,4921.88
2019-05-18T09:05:18.144Z,4606.88
2019-05-18T09:06:18.141Z,5276.25
2019-05-18T09:07:18.145Z,4983.75
2019-05-18T09:08:18.161Z,5484.38
2019-05-18T09:09:18.157Z,5400.00
2019-05-18T09:10:18.161Z,5664.38
2019-05-18T09:11:18.214Z,5298.75
2019-05-18T09:12:18.185Z,5186.25
2019-05-18T09:13:18.284Z,4950.00
2019-05-18T09:14:18.185Z,5518.13
2019-05-18T09:15:18.188Z,5377.50
2019-05-18T09:16:18.196Z,5360.63
2019-05-18T09:17:18.220Z,5175.00
2019-05-18T09:18:18.226Z,4882.50
2019-05-18T09:19:18.218Z,4708.13
2019-05-18T09:20:18.215Z,4561.88
2019-05-18T09:21:18.225Z,5203.13
2019-05-18T09:22:23.221Z,5630.63
2019-05-18T09:23:18.235Z,5608.13
2019-05-18T09:24:18.235Z,5338.13
2019-05-18T09:25:18.273Z,6024.38
2019-05-18T09:26:18.263Z,6159.38
2019-05-18T09:27:18.369Z,5602.50
2019-05-18T09:28:18.256Z,5512.50
2019-05-18T09:29:18.278Z,5821.88
2019-05-18T09:30:18.291Z,6198.75
2019-05-18T09:31:18.285Z,6294.38
2019-05-18T09:32:18.291Z,6328.13
2019-05-18T09:33:18.300Z,6125.63
2019-05-18T09:34:18.288Z,6091.88
2019-05-18T09:35:18.301Z,6193.13
2019-05-18T09:36:18.342Z,6069.38
2019-05-18T09:37:18.305Z,5670.00
2019-05-18T09:38:18.316Z,6086.25
2019-05-18T09:39:18.318Z,5934.38
2019-05-18T09:40:18.328Z,5962.50
2019-05-18T09:41:18.387Z,6181.88
2019-05-18T09:42:18.508Z,6406.88
2019-05-18T09:43:18.365Z,6260.63
2019-05-18T09:44:18.485Z,6339.38
2019-05-18T09:46:51.505Z,5838.75
2019-05-18T09:47:51.483Z,6457.50
2019-05-18T09:49:46.036Z,6637.50
2019-05-18T09:50:44.952Z,4668.75
2019-05-18T09:52:47.447Z,4837.50
2019-05-18T09:53:50.690Z,4516.88
2019-05-18T09:55:35.887Z,5107.50
2019-05-18T09:56:34.959Z,4725.00
2019-05-18T09:57:34.820Z,4713.75
2019-05-18T09:58:34.822Z,4905.00
2019-05-18T09:59:35.577Z,4831.88
2019-05-18T10:00:38.682Z,4730.63
2019-05-18T10:01:35.015Z,4736.25
2019-05-18T10:02:34.887Z,5118.75
2019-05-18T10:03:35.135Z,5186.25
2019-05-18T10:04:34.905Z,5023.13
2019-05-18T10:05:34.876Z,4696.88
2019-05-18T10:06:34.900Z,4775.63
2019-05-18T10:07:34.884Z,4809.38
2019-05-18T10:08:34.908Z,5146.88
2019-05-18T10:09:39.377Z,5304.38
2019-05-18T10:10:41.888Z,5355.00
2019-05-18T10:11:38.425Z,5326.88
2019-05-18T10:12:34.917Z,5585.63
2019-05-18T10:13:34.925Z,5917.50
2019-05-18T10:14:34.964Z,5501.25
2019-05-18T10:15:34.944Z,5810.63
2019-05-18T10:16:34.970Z,5360.63
2019-05-18T10:17:34.954Z,5276.25
2019-05-18T10:18:34.997Z,4809.38
2019-05-18T10:19:34.976Z,5855.63
2019-05-18T10:20:34.965Z,5810.63
2019-05-18T10:21:35.179Z,6586.88
2019-05-18T10:23:12.376Z,7627.50
2019-05-18T10:23:35.000Z,6114.38
2019-05-18T10:24:35.126Z,5647.50
2019-05-18T10:25:34.999Z,5495.63
2019-05-18T10:26:35.013Z,5771.25
2019-05-18T10:27:35.036Z,5866.88
2019-05-18T10:28:35.043Z,5844.38
2019-05-18T10:29:35.036Z,6148.13
2019-05-18T10:30:35.076Z,6328.13
2019-05-18T10:31:35.162Z,6435.00
2019-05-18T10:32:35.108Z,6716.25
2019-05-18T10:33:35.054Z,6783.75
2019-05-18T10:34:35.063Z,6862.50
2019-05-18T10:35:35.059Z,6935.63
2019-05-18T10:36:35.085Z,6868.13
2019-05-18T10:37:35.079Z,6806.25
2019-05-18T10:38:35.107Z,6733.13
2019-05-18T10:39:38.432Z,6958.13
2019-05-18T10:40:35.231Z,6856.88
2019-05-18T10:41:35.135Z,6485.63
2019-05-18T10:42:35.132Z,6485.63
2019-05-18T10:43:35.124Z,6553.13
2019-05-18T10:44:35.125Z,6665.63
2019-05-18T10:45:35.144Z,6598.13
2019-05-18T10:46:35.136Z,6586.88
2019-05-18T10:47:35.157Z,6738.75
2019-05-18T10:48:35.271Z,6513.75
2019-05-18T10:49:35.168Z,5596.88
2019-05-18T10:50:35.919Z,3020.63
2019-05-18T10:51:35.177Z,3493.13
2019-05-18T10:52:35.191Z,3459.38
2019-05-18T10:53:35.322Z,2407.50
2019-05-18T10:54:35.220Z,2587.50
2019-05-18T10:55:35.271Z,2210.63
2019-05-18T10:56:35.216Z,2188.13
2019-05-18T10:57:35.457Z,2154.38
2019-05-18T10:58:35.237Z,2216.25
2019-05-18T11:00:35.249Z,2593.13
2019-05-18T11:01:35.463Z,4781.25
2019-05-18T11:02:35.573Z,2615.63
2019-05-18T11:03:35.881Z,2548.13
2019-05-18T11:04:35.893Z,2463.75
2019-05-18T11:05:35.272Z,3330.00
2019-05-18T11:06:35.444Z,2756.25
2019-05-18T11:07:35.299Z,2688.75
2019-05-18T11:08:38.277Z,2610.00
2019-05-18T11:09:35.302Z,2469.38
2019-05-18T11:10:35.337Z,3853.13
2019-05-18T11:11:35.430Z,4173.75
2019-05-18T11:12:35.321Z,3442.50
2019-05-18T11:13:35.325Z,3729.38
2019-05-18T11:14:35.331Z,3223.13
2019-05-18T11:15:35.330Z,3256.88
2019-05-18T11:16:35.353Z,2818.13
2019-05-18T11:17:35.354Z,2542.50
2019-05-18T11:18:35.358Z,4550.63
2019-05-18T11:19:35.356Z,4258.13
2019-05-18T11:20:35.371Z,4145.63
2019-05-18T11:21:35.366Z,6035.63
2019-05-18T11:22:35.398Z,4601.25
2019-05-18T11:23:43.391Z,5810.63
2019-05-18T11:24:35.413Z,5776.88
2019-05-18T11:25:35.387Z,5810.63
2019-05-18T11:26:35.408Z,5630.63
2019-05-18T11:27:35.402Z,5501.25
2019-05-18T11:28:35.395Z,5467.50
2019-05-18T11:29:35.463Z,5546.25
2019-05-18T11:30:35.405Z,5394.38
2019-05-18T11:31:35.414Z,5214.38
2019-05-18T11:32:35.425Z,5169.38
2019-05-18T11:33:35.423Z,5214.38
2019-05-18T11:34:35.433Z,5461.88
2019-05-18T11:35:35.438Z,5709.38
2019-05-18T11:36:35.443Z,5501.25
2019-05-18T11:37:35.447Z,5360.63
2019-05-18T11:38:35.459Z,5473.13
2019-05-18T11:39:35.468Z,5169.38
2019-05-18T11:40:35.472Z,5045.63
2019-05-18T11:41:35.489Z,4972.50
2019-05-18T11:42:35.480Z,4938.75
2019-05-18T11:43:35.489Z,5023.13
2019-05-18T11:44:35.491Z,5051.25
2019-05-18T11:45:35.509Z,4989.38
2019-05-18T11:46:35.511Z,4635.00
2019-05-18T11:47:35.516Z,5085.00
2019-05-18T11:48:35.526Z,5338.13
2019-05-18T11:49:35.527Z,1636.88
2019-05-18T11:50:35.536Z,1895.63
2019-05-18T11:51:35.544Z,1321.88
2019-05-18T11:52:35.550Z,1203.75
2019-05-18T11:53:35.551Z,1147.50
2019-05-18T11:54:35.557Z,1158.75
2019-05-18T11:55:35.569Z,1434.38
2019-05-18T11:56:35.574Z,1816.88
2019-05-18T11:57:35.582Z,4578.75
2019-05-18T11:58:35.598Z,4843.13
2019-05-18T11:59:35.619Z,4865.63
2019-05-18T12:00:35.610Z,4786.88
2019-05-18T12:01:35.605Z,4685.63
2019-05-18T12:02:35.611Z,4578.75
2019-05-18T12:03:35.619Z,4938.75
2019-05-18T12:04:35.628Z,5394.38
2019-05-18T12:05:35.629Z,4764.38
2019-05-18T12:06:35.632Z,4460.63
2019-05-18T12:07:35.643Z,4539.38
2019-05-18T12:08:35.641Z,4522.50
2019-05-18T12:09:35.660Z,4798.13
2019-05-18T12:10:35.675Z,4736.25
2019-05-18T12:11:35.664Z,4410.00
2019-05-18T12:12:35.683Z,2508.75
2019-05-18T12:13:35.674Z,1012.50
2019-05-18T12:14:35.683Z,916.88
2019-05-18T12:15:35.689Z,855.00
2019-05-18T12:16:35.703Z,810.00
2019-05-18T12:17:35.698Z,838.13
2019-05-18T12:18:35.712Z,900.00
2019-05-18T12:19:35.715Z,973.13
2019-05-18T12:20:35.718Z,1057.50
2019-05-18T12:21:35.721Z,1153.13
2019-05-18T12:22:35.737Z,1597.50
2019-05-18T12:23:35.738Z,4066.88
2019-05-18T12:24:35.758Z,1366.88
2019-05-18T12:25:35.741Z,1327.50
2019-05-18T12:26:35.750Z,1265.63
2019-05-18T12:27:35.759Z,1203.75
2019-05-18T12:28:35.773Z,1125.00
2019-05-18T12:29:35.789Z,1080.00
2019-05-18T12:30:35.785Z,1023.75
2019-05-18T12:31:35.778Z,1001.25
2019-05-18T12:32:35.774Z,1046.25
2019-05-18T12:33:35.783Z,1085.63
2019-05-18T12:34:35.781Z,1136.25